createdAt,value
2018-05-13T00:00:05.989Z,80.8
2018-05-13T00:05:02.810Z,80.7
2018-05-13T00:10:03.562Z,81.3
2018-05-13T00:15:10.424Z,82.1
2018-05-13T00:20:02.807Z,82.1
2018-05-13T00:25:15.934Z,82.8
2018-05-13T00:30:08.241Z,83
2018-05-13T00:35:10.181Z,83.3
2018-05-13T00:40:07.975Z,83.7
2018-05-13T00:45:15.955Z,83.8
2018-05-13T00:50:03.440Z,83.8
2018-05-13T00:55:02.686Z,84.2
2018-05-13T01:00:05.551Z,84.9
2018-05-13T01:05:05.864Z,85.1
2018-05-13T01:10:07.880Z,85.2
2018-05-13T01:15:10.498Z,85.5
2018-05-13T01:20:02.876Z,85.4
2018-05-13T01:25:13.411Z,86
2018-05-13T01:30:02.670Z,86
2018-05-13T01:35:08.129Z,86.7
2018-05-13T01:40:15.536Z,87.2
2018-05-13T01:45:03.246Z,87.1
2018-05-13T01:50:05.073Z,87.6
2018-05-13T01:55:05.390Z,87.7
2018-05-13T02:00:05.209Z,87.9
2018-05-13T02:05:08.106Z,87.9
2018-05-13T02:10:02.831Z,87.9
2018-05-13T02:15:03.241Z,88.1
2018-05-13T02:20:02.643Z,88.2
2018-05-13T02:25:02.915Z,88.4
2018-05-13T02:30:13.436Z,88.9
2018-05-13T02:35:17.847Z,89.1
2018-05-13T02:40:02.653Z,89.1
2018-05-13T02:45:15.614Z,89.7
2018-05-13T02:50:02.914Z,89.7
2018-05-13T02:55:05.801Z,90
2018-05-13T03:00:23.337Z,90.2
2018-05-13T03:05:13.589Z,90.3
2018-05-13T03:10:05.885Z,90.3
2018-05-13T03:15:02.738Z,90.3
2018-05-13T03:20:08.240Z,90.5
2018-05-13T03:25:08.548Z,90.7
2018-05-13T03:30:05.453Z,90.8
2018-05-13T03:35:03.197Z,90.7
2018-05-13T03:40:08.028Z,90.9
2018-05-13T03:45:03.306Z,90.8
2018-05-13T03:50:05.085Z,91.1
2018-05-13T03:55:10.569Z,91.2
2018-05-13T04:00:28.161Z,91.1
2018-05-13T04:05:03.417Z,91.1
2018-05-13T04:10:03.156Z,91.2
2018-05-13T04:15:06.041Z,91.3
2018-05-13T04:20:06.110Z,91.4
2018-05-13T04:25:05.403Z,91.3
2018-05-13T04:30:17.900Z,91.4
2018-05-13T04:35:18.205Z,91.2
2018-05-13T04:40:08.016Z,91.1
2018-05-13T04:45:03.243Z,91.1
2018-05-13T04:50:02.576Z,91.1
2018-05-13T04:55:13.032Z,90.7
2018-05-13T05:00:03.351Z,90.7
2018-05-13T05:05:07.744Z,90.3
2018-05-13T05:10:06.159Z,90.1
2018-05-13T05:15:02.899Z,90.2
2018-05-13T05:20:03.266Z,89.6
2018-05-13T05:25:17.880Z,88.3
2018-05-13T05:30:03.143Z,88.4
2018-05-13T05:35:02.560Z,88.1
2018-05-13T05:40:08.398Z,87
2018-05-13T05:45:05.204Z,86.4
2018-05-13T05:50:02.672Z,86.4
2018-05-13T05:55:15.784Z,85.8
2018-05-13T06:00:03.131Z,85.8
2018-05-13T06:05:03.453Z,85.1
2018-05-13T06:10:05.726Z,84.1
2018-05-13T06:15:02.979Z,84.1
2018-05-13T06:20:03.453Z,83.3
2018-05-13T06:25:02.798Z,82.5
2018-05-13T06:30:07.751Z,81.3
2018-05-13T06:35:03.050Z,81.3
2018-05-13T06:40:13.055Z,80.3
2018-05-13T06:45:08.430Z,79.1
2018-05-13T06:50:03.135Z,79.1
2018-05-13T06:55:03.525Z,79
2018-05-13T07:00:02.870Z,78.5
2018-05-13T07:05:10.802Z,76.3
2018-05-13T07:10:06.058Z,74.9
2018-05-13T07:15:08.255Z,74.4
2018-05-13T07:20:05.172Z,73.5
2018-05-13T07:25:03.047Z,73.4
2018-05-13T07:30:03.387Z,72.6
2018-05-13T07:35:10.328Z,72.1
2018-05-13T07:40:03.133Z,72
2018-05-13T07:45:03.504Z,70.2
2018-05-13T07:50:13.006Z,65.9
2018-05-13T07:55:20.954Z,65.5
2018-05-13T08:00:03.305Z,65.5
2018-05-13T08:05:02.588Z,64
2018-05-13T08:10:02.663Z,62.1
2018-05-13T08:15:05.622Z,59.4
2018-05-13T08:20:10.856Z,59.4
2018-05-13T08:25:07.780Z,59.7
2018-05-13T08:30:03.112Z,59.7
2018-05-13T08:35:08.512Z,58.4
2018-05-13T08:40:05.966Z,57.4
2018-05-13T08:45:05.187Z,55.9
2018-05-13T08:50:11.044Z,55.8
2018-05-13T08:55:02.972Z,55.8
2018-05-13T09:00:05.941Z,54.1
2018-05-13T09:05:08.006Z,54.1
2018-05-13T09:10:05.381Z,53.8
2018-05-13T09:15:03.397Z,53.8
2018-05-13T09:20:05.504Z,51.9
2018-05-13T09:25:18.522Z,51.3
2018-05-13T09:30:02.925Z,51.4
2018-05-13T09:35:05.764Z,46.2
2018-05-13T09:40:21.249Z,45.7
2018-05-13T09:45:03.004Z,45.6
2018-05-13T09:50:03.329Z,43.8
2018-05-13T09:55:02.696Z,43.7
2018-05-13T10:00:10.669Z,43.2
2018-05-13T10:05:03.464Z,43.1
2018-05-13T10:10:05.735Z,42.3
2018-05-13T10:15:02.621Z,42.3
2018-05-13T10:20:13.199Z,41.8
2018-05-13T10:25:03.472Z,42.1
2018-05-13T10:30:02.811Z,42
2018-05-13T10:35:03.245Z,41.5
2018-05-13T10:40:05.590Z,41
2018-05-13T10:45:08.509Z,39.7
2018-05-13T10:50:13.008Z,39.2
2018-05-13T10:55:05.724Z,38.8
2018-05-13T11:00:03.121Z,38.7
2018-05-13T11:05:02.624Z,37
2018-05-13T11:10:05.993Z,37.2
2018-05-13T11:15:05.490Z,36.7
2018-05-13T11:20:05.434Z,34.6
2018-05-13T11:25:08.431Z,35.7
2018-05-13T11:30:08.137Z,35.1
2018-05-13T11:35:02.542Z,35
2018-05-13T11:40:05.889Z,34.7
2018-05-13T11:45:05.325Z,33.8
2018-05-13T11:50:02.692Z,33.9
2018-05-13T11:55:05.692Z,32.6
2018-05-13T12:00:03.020Z,32.6
2018-05-13T12:05:02.661Z,32.4
2018-05-13T12:10:03.539Z,31.2
2018-05-13T12:15:03.238Z,30.8
2018-05-13T12:20:02.740Z,29.9
2018-05-13T12:25:05.737Z,29.1
2018-05-13T12:30:03.086Z,29.1
2018-05-13T12:35:11.118Z,29.8
2018-05-13T12:40:02.950Z,29.8
2018-05-13T12:45:05.887Z,28.4
2018-05-13T12:50:08.371Z,28
2018-05-13T12:55:07.773Z,28.3
2018-05-13T13:00:08.567Z,30.7
2018-05-13T13:05:03.000Z,30.5
2018-05-13T13:10:03.037Z,29.6
2018-05-13T13:15:16.458Z,27.5
2018-05-13T13:20:03.187Z,27.6
2018-05-13T13:25:03.426Z,27.1
2018-05-13T13:30:07.836Z,27.9
2018-05-13T13:35:03.325Z,27.9
2018-05-13T13:40:03.182Z,28.4
2018-05-13T13:45:05.179Z,26.4
2018-05-13T13:50:02.570Z,26.4
2018-05-13T13:55:05.561Z,26.7
2018-05-13T14:00:05.531Z,26.8
2018-05-13T14:05:10.924Z,27.3
2018-05-13T14:10:12.929Z,27.1
2018-05-13T14:15:03.284Z,27.1
2018-05-13T14:20:05.569Z,27.8
2018-05-13T14:25:03.420Z,28
2018-05-13T14:30:05.360Z,26.3
2018-05-13T14:35:03.160Z,26.2
2018-05-13T14:40:08.092Z,27.2
2018-05-13T14:45:06.104Z,27.7
2018-05-13T14:50:03.571Z,27.6
2018-05-13T14:55:10.551Z,26
2018-05-13T15:00:10.650Z,25.2
2018-05-13T15:05:03.555Z,25.3
2018-05-13T15:10:12.823Z,23.5
2018-05-13T15:15:03.166Z,23.5
2018-05-13T15:20:02.623Z,23
2018-05-13T15:25:03.214Z,26.2
2018-05-13T15:30:07.780Z,24.7
2018-05-13T15:35:05.727Z,24.2
2018-05-13T15:40:10.173Z,23.9
2018-05-13T15:45:05.655Z,24.3
2018-05-13T15:50:10.706Z,23.5
2018-05-13T15:55:03.707Z,23.4
2018-05-13T16:00:03.199Z,23.2
2018-05-13T16:05:02.755Z,22
2018-05-13T16:10:02.592Z,22.1
2018-05-13T16:15:08.323Z,22.1
2018-05-13T16:20:05.388Z,22.5
2018-05-13T16:25:10.994Z,22.6
2018-05-13T16:30:03.720Z,23
2018-05-13T16:35:05.664Z,24
2018-05-13T16:40:03.517Z,24
2018-05-13T16:45:10.787Z,2.7
2018-05-13T16:50:08.410Z,25.2
2018-05-13T16:55:02.853Z,25.2
2018-05-13T17:00:15.946Z,26.2
2018-05-13T17:05:10.354Z,26.7
2018-05-13T17:10:08.219Z,26.8
2018-05-13T17:15:02.673Z,26.8
2018-05-13T17:20:06.116Z,29.9
2018-05-13T17:25:02.895Z,30.4
2018-05-13T17:30:02.591Z,33.6
2018-05-13T17:35:10.877Z,33.4
2018-05-13T17:40:08.109Z,33.3
2018-05-13T17:45:10.142Z,33.2
2018-05-13T17:50:05.354Z,32.6
2018-05-13T17:55:03.312Z,32.4
2018-05-13T18:00:10.638Z,34.7
2018-05-13T18:05:07.592Z,35
2018-05-13T18:10:02.742Z,35
2018-05-13T18:15:08.250Z,33.8
2018-05-13T18:20:03.043Z,33.7
2018-05-13T18:25:10.181Z,36.6
2018-05-13T18:30:15.840Z,35.8
2018-05-13T18:35:12.694Z,37.3
2018-05-13T18:40:06.071Z,36.9
2018-05-13T18:45:02.865Z,36.9
2018-05-13T18:50:05.741Z,37.3
2018-05-13T18:55:05.433Z,39.2
2018-05-13T19:00:02.758Z,39.2
2018-05-13T19:05:05.689Z,38.4
2018-05-13T19:10:03.457Z,38.4
2018-05-13T19:15:03.311Z,38.3
2018-05-13T19:20:02.683Z,39
2018-05-13T19:25:05.740Z,38.8
2018-05-13T19:30:10.681Z,38.8
2018-05-13T19:35:02.554Z,38.7
2018-05-13T19:40:03.372Z,37.8
2018-05-13T19:45:07.840Z,39
2018-05-13T19:50:03.230Z,39
2018-05-13T19:55:02.653Z,40.4
2018-05-13T20:00:03.017Z,39.5
2018-05-13T20:05:03.468Z,39.7
2018-05-13T20:10:08.396Z,39.3
2018-05-13T20:15:07.796Z,40
2018-05-13T20:20:03.209Z,40.1
2018-05-13T20:25:07.713Z,40.3
2018-05-13T20:30:13.181Z,40.8
2018-05-13T20:35:10.150Z,40.6
2018-05-13T20:40:10.680Z,39.6
2018-05-13T20:45:03.418Z,39.6
2018-05-13T20:50:05.292Z,40.2
2018-05-13T20:55:08.211Z,40
2018-05-13T21:00:07.712Z,40.7
2018-05-13T21:05:10.668Z,41.1
2018-05-13T21:10:03.512Z,41.2
2018-05-13T21:15:05.485Z,41.9
2018-05-13T21:20:13.042Z,41.9
2018-05-13T21:25:03.273Z,41.9
2018-05-13T21:30:05.203Z,42.3
2018-05-13T21:35:13.439Z,42.5
2018-05-13T21:40:03.213Z,42.6
2018-05-13T21:45:07.701Z,43
2018-05-13T21:50:05.565Z,43.4
2018-05-13T21:55:03.427Z,43.3
2018-05-13T22:00:05.387Z,44
2018-05-13T22:05:05.715Z,44
2018-05-13T22:10:06.094Z,44.6
2018-05-13T22:15:05.396Z,44.5
2018-05-13T22:20:02.833Z,44.5
2018-05-13T22:25:03.143Z,44.6
2018-05-13T22:30:11.088Z,44.7
2018-05-13T22:35:02.863Z,44.7
2018-05-13T22:40:02.628Z,45.3
2018-05-13T22:45:18.149Z,45.4
2018-05-13T22:50:11.091Z,45.6
2018-05-13T22:55:02.942Z,45.6
2018-05-13T23:00:03.450Z,45.7
2018-05-13T23:05:07.765Z,46
2018-05-13T23:10:03.500Z,46
2018-05-13T23:15:10.442Z,46.5
2018-05-13T23:20:02.928Z,46.5
2018-05-13T23:25:05.789Z,46.7
2018-05-13T23:30:05.731Z,46.9
2018-05-13T23:35:06.007Z,47.2
2018-05-13T23:40:05.322Z,47.1
2018-05-13T23:45:05.710Z,47.8
2018-05-13T23:50:10.657Z,48.4
2018-05-13T23:55:10.951Z,48.7
